Time,TemperatureF,DewpointF,PressureIn,WindDirection,WindDirectionDegrees,WindSpeedMPH,WindSpeedGustMPH,Humidity,HourlyPrecipIn,Conditions,Clouds,dailyrainin,SoftwareType,DateUTC
2013-08-10 00:11:00,69.0,69.0,-100.00,NW,315,0.0,0.0,99,-99.99,,,-99.99,,2013-08-10 05:11:00,
2013-08-10 00:22:00,69.0,69.0,-100.00,NW,315,0.0,0.0,99,-99.99,,,-99.99,,2013-08-10 05:22:00,
2013-08-10 00:32:00,69.0,68.0,-100.00,NW,325,0.0,0.0,99,-99.99,,,-99.99,,2013-08-10 05:32:00,
2013-08-10 00:43:00,68.0,68.0,-100.00,NNW,335,0.0,0.0,99,-99.99,,,-99.99,,2013-08-10 05:43:00,
2013-08-10 00:52:00,68.0,68.0,-100.00,NNW,335,0.0,0.0,99,-99.99,,,-99.99,,2013-08-10 05:52:00,
2013-08-10 01:02:00,68.0,68.0,-100.00,NW,320,0.0,0.0,99,-99.99,,,-99.99,,2013-08-10 06:02:00,
2013-08-10 01:11:00,69.0,68.0,-100.00,NNW,340,0.0,0.0,99,-99.99,,,-99.99,,2013-08-10 06:11:00,
2013-08-10 01:22:00,69.0,68.0,-100.00,NNW,340,0.0,0.0,99,-99.99,,,-99.99,,2013-08-10 06:22:00,
2013-08-10 01:32:00,69.0,68.0,-100.00,North,10,0.0,0.0,99,-99.99,,,-99.99,,2013-08-10 06:32:00,
2013-08-10 01:53:00,68.0,68.0,-100.00,North,355,0.0,0.0,99,-99.99,,,-99.99,,2013-08-10 06:53:00,
2013-08-10 02:12:00,68.0,68.0,-100.00,WNW,295,0.0,0.0,99,-99.99,,,-99.99,,2013-08-10 07:12:00,
2013-08-10 02:22:00,68.0,68.0,-100.00,WNW,295,0.0,0.0,99,-99.99,,,-99.99,,2013-08-10 07:22:00,
2013-08-10 02:33:00,68.0,68.0,-100.00,WNW,300,0.0,0.0,99,-99.99,,,-99.99,,2013-08-10 07:33:00,
2013-08-10 02:43:00,68.0,68.0,-100.00,NW,325,0.0,0.0,99,-99.99,,,-99.99,,2013-08-10 07:43:00,
2013-08-10 02:52:00,68.0,68.0,-100.00,NW,325,0.0,0.0,99,-99.99,,,-99.99,,2013-08-10 07:52:00,
2013-08-10 03:12:00,66.0,66.0,-100.00,West,260,0.0,0.0,99,-99.99,,,-99.99,,2013-08-10 08:12:00,
2013-08-10 03:22:00,66.0,66.0,-100.00,West,260,0.0,0.0,99,-99.99,,,-99.99,,2013-08-10 08:22:00,
2013-08-10 03:32:00,66.0,66.0,-100.00,WNW,290,0.0,0.0,99,-99.99,,,-99.99,,2013-08-10 08:32:00,
2013-08-10 03:43:00,66.0,66.0,-100.00,NW,320,0.0,0.0,99,-99.99,,,-99.99,,2013-08-10 08:43:00,
2013-08-10 03:53:00,66.0,66.0,-100.00,NW,320,0.0,0.0,99,-99.99,,,-99.99,,2013-08-10 08:53:00,
2013-08-10 04:02:00,65.0,65.0,-100.00,WNW,295,0.0,0.0,99,-99.99,,,-99.99,,2013-08-10 09:02:00,
2013-08-10 04:12:00,65.0,64.0,-100.00,NW,315,0.0,0.0,99,-99.99,,,-99.99,,2013-08-10 09:12:00,
2013-08-10 04:22:00,65.0,64.0,-100.00,NW,315,0.0,0.0,99,-99.99,,,-99.99,,2013-08-10 09:22:00,
2013-08-10 04:32:00,64.0,64.0,-100.00,WNW,295,0.0,0.0,99,-99.99,,,-99.99,,2013-08-10 09:32:00,
2013-08-10 04:43:00,64.0,64.0,-100.00,NW,305,0.0,0.0,99,-99.99,,,-99.99,,2013-08-10 09:43:00,
2013-08-10 04:52:00,64.0,64.0,-100.00,NW,305,0.0,0.0,99,-99.99,,,-99.99,,2013-08-10 09:52:00,
2013-08-10 05:11:00,63.0,62.0,-100.00,NW,315,0.0,0.0,99,-99.99,,,-99.99,,2013-08-10 10:11:00,
2013-08-10 05:22:00,63.0,62.0,-100.00,NW,315,0.0,0.0,99,-99.99,,,-99.99,,2013-08-10 10:22:00,
2013-08-10 05:33:00,62.0,62.0,-100.00,NNW,335,0.0,0.0,99,-99.99,,,-99.99,,2013-08-10 10:33:00,
2013-08-10 05:44:00,62.0,61.0,-100.00,NNW,335,0.0,0.0,99,-99.99,,,-99.99,,2013-08-10 10:44:00,
2013-08-10 05:53:00,62.0,61.0,-100.00,NNW,335,0.0,0.0,99,-99.99,,,-99.99,,2013-08-10 10:53:00,
2013-08-10 06:11:00,61.0,61.0,-100.00,North,355,0.0,0.0,99,-99.99,,,-99.99,,2013-08-10 11:11:00,
2013-08-10 06:22:00,61.0,61.0,-100.00,North,355,0.0,0.0,99,-99.99,,,-99.99,,2013-08-10 11:22:00,
2013-08-10 06:33:00,60.0,60.0,-100.00,North,10,0.0,0.0,99,-99.99,,,-99.99,,2013-08-10 11:33:00,
2013-08-10 06:43:00,60.0,60.0,-100.00,NW,315,0.0,0.0,99,-99.99,,,-99.99,,2013-08-10 11:43:00,
2013-08-10 06:53:00,60.0,60.0,-100.00,NW,315,0.0,0.0,99,-99.99,,,-99.99,,2013-08-10 11:53:00,
2013-08-10 07:11:00,61.0,61.0,-100.00,NW,310,0.0,0.0,99,-99.99,,,-99.99,,2013-08-10 12:11:00,
2013-08-10 07:22:00,61.0,61.0,-100.00,NW,310,0.0,0.0,99,-99.99,,,-99.99,,2013-08-10 12:22:00,
2013-08-10 07:32:00,61.0,61.0,-100.00,NW,305,0.0,0.0,99,-99.99,,,-99.99,,2013-08-10 12:32:00,
2013-08-10 07:42:00,62.0,62.0,-100.00,WNW,300,0.0,0.0,99,-99.99,,,-99.99,,2013-08-10 12:42:00,
2013-08-10 07:52:00,62.0,62.0,-100.00,WNW,300,0.0,0.0,99,-99.99,,,-99.99,,2013-08-10 12:52:00,
2013-08-10 08:11:00,67.0,67.0,-100.00,West,280,0.0,0.0,99,-99.99,,,-99.99,,2013-08-10 13:11:00,
2013-08-10 08:21:00,67.0,67.0,-100.00,West,280,0.0,0.0,99,-99.99,,,-99.99,,2013-08-10 13:21:00,
2013-08-10 08:43:00,72.0,68.0,-100.00,NW,310,0.0,0.0,88,-99.99,,,-99.99,,2013-08-10 13:43:00,
2013-08-10 08:52:00,72.0,68.0,-100.00,NW,310,0.0,0.0,88,-99.99,,,-99.99,,2013-08-10 13:52:00,
2013-08-10 11:32:00,80.0,59.0,-100.00,North,10,0.0,0.0,49,-99.99,,,-99.99,,2013-08-10 16:32:00,
2013-08-10 11:53:00,81.0,58.0,-100.00,North,0,0.0,0.0,47,-99.99,,,-99.99,,2013-08-10 16:53:00,
2013-08-10 12:12:00,82.0,59.0,-100.00,North,350,0.0,0.0,46,-99.99,,,-99.99,,2013-08-10 17:12:00,
2013-08-10 12:22:00,82.0,59.0,-100.00,North,350,0.0,0.0,46,-99.99,,,-99.99,,2013-08-10 17:22:00,
2013-08-10 12:33:00,82.0,59.0,-100.00,NNE,15,0.0,0.0,45,-99.99,,,-99.99,,2013-08-10 17:33:00,
2013-08-10 12:43:00,82.0,59.0,-100.00,North,10,0.0,0.0,45,-99.99,,,-99.99,,2013-08-10 17:43:00,
2013-08-10 12:52:00,82.0,59.0,-100.00,North,10,0.0,0.0,45,-99.99,,,-99.99,,2013-08-10 17:52:00,
2013-08-10 13:01:00,83.0,59.0,-100.00,NNW,330,0.0,0.0,45,-99.99,,,-99.99,,2013-08-10 18:01:00,
2013-08-10 13:11:00,83.0,59.0,-100.00,North,5,0.0,0.0,45,-99.99,,,-99.99,,2013-08-10 18:11:00,
2013-08-10 13:23:00,83.0,59.0,-100.00,North,5,0.0,0.0,45,-99.99,,,-99.99,,2013-08-10 18:23:00,
2013-08-10 13:32:00,84.0,59.0,-100.00,NNW,330,0.0,0.0,43,-99.99,,,-99.99,,2013-08-10 18:32:00,
2013-08-10 13:44:00,84.0,59.0,-100.00,North,0,0.0,0.0,43,-99.99,,,-99.99,,2013-08-10 18:44:00,
2013-08-10 13:52:00,84.0,59.0,-100.00,North,0,0.0,0.0,43,-99.99,,,-99.99,,2013-08-10 18:52:00,
2013-08-10 14:11:00,84.0,58.0,-100.00,North,5,0.0,0.0,42,-99.99,,,-99.99,,2013-08-10 19:11:00,
2013-08-10 14:22:00,84.0,58.0,-100.00,North,5,0.0,0.0,42,-99.99,,,-99.99,,2013-08-10 19:22:00,
2013-08-10 14:33:00,83.0,57.0,-100.00,North,0,0.0,0.0,41,-99.99,,,-99.99,,2013-08-10 19:33:00,
2013-08-10 14:44:00,83.0,57.0,-100.00,ENE,70,0.0,0.0,41,-99.99,,,-99.99,,2013-08-10 19:44:00,
2013-08-10 14:53:00,83.0,57.0,-100.00,ENE,70,0.0,0.0,41,-99.99,,,-99.99,,2013-08-10 19:53:00,
2013-08-10 15:12:00,84.0,57.0,-100.00,NNE,20,0.0,0.0,41,-99.99,,,-99.99,,2013-08-10 20:12:00,
2013-08-10 15:22:00,84.0,57.0,-100.00,NNE,20,0.0,0.0,41,-99.99,,,-99.99,,2013-08-10 20:22:00,
2013-08-10 15:33:00,83.0,57.0,-100.00,North,10,0.0,0.0,41,-99.99,,,-99.99,,2013-08-10 20:33:00,
2013-08-10 15:43:00,83.0,57.0,-100.00,North,10,0.0,0.0,42,-99.99,,,-99.99,,2013-08-10 20:43:00,
2013-08-10 15:53:00,83.0,57.0,-100.00,North,10,0.0,0.0,42,-99.99,,,-99.99,,2013-08-10 20:53:00,
2013-08-10 16:12:00,83.0,57.0,-100.00,North,10,0.0,0.0,41,-99.99,,,-99.99,,2013-08-10 21:12:00,
2013-08-10 16:22:00,83.0,57.0,-100.00,North,10,0.0,0.0,41,-99.99,,,-99.99,,2013-08-10 21:22:00,
2013-08-10 16:32:00,83.0,56.0,-100.00,NE,45,0.0,0.0,41,-99.99,,,-99.99,,2013-08-10 21:32:00,
2013-08-10 16:42:00,83.0,58.0,-100.00,North,0,0.0,0.0,43,-99.99,,,-99.99,,2013-08-10 21:42:00,
2013-08-10 16:52:00,83.0,58.0,-100.00,North,0,0.0,0.0,43,-99.99,,,-99.99,,2013-08-10 21:52:00,
2013-08-10 17:11:00,81.0,57.0,-100.00,North,10,0.0,0.0,43,-99.99,,,-99.99,,2013-08-10 22:11:00,
2013-08-10 17:21:00,81.0,57.0,-100.00,North,10,0.0,0.0,43,-99.99,,,-99.99,,2013-08-10 22:21:00,
2013-08-10 17:32:00,80.0,57.0,-100.00,North,0,0.0,0.0,45,-99.99,,,-99.99,,2013-08-10 22:32:00,
2013-08-10 17:43:00,80.0,56.0,-100.00,North,0,0.0,0.0,45,-99.99,,,-99.99,,2013-08-10 22:43:00,
2013-08-10 17:52:00,80.0,56.0,-100.00,North,0,0.0,0.0,45,-99.99,,,-99.99,,2013-08-10 22:52:00,
2013-08-10 18:12:00,79.0,56.0,-100.00,North,5,0.0,0.0,45,-99.99,,,-99.99,,2013-08-10 23:12:00,
2013-08-10 18:22:00,79.0,56.0,-100.00,North,5,0.0,0.0,45,-99.99,,,-99.99,,2013-08-10 23:22:00,
2013-08-10 18:32:00,79.0,57.0,-100.00,North,10,0.0,0.0,47,-99.99,,,-99.99,,2013-08-10 23:32:00,
2013-08-10 18:43:00,78.0,57.0,-100.00,North,10,0.0,0.0,47,-99.99,,,-99.99,,2013-08-10 23:43:00,
2013-08-10 18:53:00,78.0,57.0,-100.00,North,10,0.0,0.0,47,-99.99,,,-99.99,,2013-08-10 23:53:00,
2013-08-10 19:02:00,78.0,57.0,-100.00,NNE,20,0.0,0.0,48,-99.99,,,-99.99,,2013-08-11 00:02:00,
2013-08-10 19:11:00,78.0,57.0,-100.00,NNE,25,0.0,0.0,49,-99.99,,,-99.99,,2013-08-11 00:11:00,
2013-08-10 19:22:00,78.0,57.0,-100.00,NNE,25,0.0,0.0,49,-99.99,,,-99.99,,2013-08-11 00:22:00,
2013-08-10 19:32:00,77.0,57.0,-100.00,NNE,15,0.0,0.0,51,-99.99,,,-99.99,,2013-08-11 00:32:00,
2013-08-10 19:52:00,76.0,58.0,-100.00,NE,55,0.0,0.0,55,-99.99,,,-99.99,,2013-08-11 00:52:00,
2013-08-10 20:11:00,73.0,60.0,-100.00,NNE,30,0.0,0.0,63,-99.99,,,-99.99,,2013-08-11 01:11:00,
2013-08-10 20:22:00,73.0,60.0,-100.00,NNE,30,0.0,0.0,63,-99.99,,,-99.99,,2013-08-11 01:22:00,
2013-08-10 20:32:00,72.0,61.0,-100.00,NE,40,0.0,0.0,67,-99.99,,,-99.99,,2013-08-11 01:32:00,
2013-08-10 20:43:00,71.0,61.0,-100.00,East,80,0.0,0.0,71,-99.99,,,-99.99,,2013-08-11 01:43:00,
2013-08-10 20:54:00,71.0,61.0,-100.00,East,80,0.0,0.0,71,-99.99,,,-99.99,,2013-08-11 01:54:00,
2013-08-10 21:11:00,68.0,65.0,-100.00,NNE,15,0.0,0.0,90,-99.99,,,-99.99,,2013-08-11 02:11:00,
2013-08-10 21:22:00,68.0,65.0,-100.00,NNE,15,0.0,0.0,90,-99.99,,,-99.99,,2013-08-11 02:22:00,
2013-08-10 21:32:00,67.0,65.0,-100.00,North,0,0.0,0.0,94,-99.99,,,-99.99,,2013-08-11 02:32:00,
2013-08-10 21:43:00,66.0,65.0,-100.00,NW,310,0.0,0.0,97,-99.99,,,-99.99,,2013-08-11 02:43:00,
2013-08-10 21:57:00,66.0,65.0,-100.00,NW,310,0.0,0.0,97,-99.99,,,-99.99,,2013-08-11 02:57:00,
2013-08-10 22:17:00,65.0,64.0,-100.00,NNE,30,0.0,0.0,99,-99.99,,,-99.99,,2013-08-11 03:17:00,
2013-08-10 22:27:00,65.0,64.0,-100.00,NNE,30,0.0,0.0,99,-99.99,,,-99.99,,2013-08-11 03:27:00,
2013-08-10 22:35:00,64.0,64.0,-100.00,North,350,0.0,0.0,99,-99.99,,,-99.99,,2013-08-11 03:35:00,
2013-08-10 22:44:00,63.0,63.0,-100.00,West,265,0.0,0.0,99,-99.99,,,-99.99,,2013-08-11 03:44:00,
2013-08-10 23:01:00,63.0,63.0,-100.00,West,265,0.0,0.0,99,-99.99,,,-99.99,,2013-08-11 04:01:00,
2013-08-10 23:12:00,62.0,62.0,-100.00,SE,130,0.0,0.0,99,-99.99,,,-99.99,,2013-08-11 04:12:00,
2013-08-10 23:22:00,62.0,62.0,-100.00,SE,130,0.0,0.0,99,-99.99,,,-99.99,,2013-08-11 04:22:00,
2013-08-10 23:32:00,62.0,62.0,-100.00,North,0,0.0,0.0,99,-99.99,,,-99.99,,2013-08-11 04:32:00,
2013-08-10 23:43:00,62.0,61.0,-100.00,NNW,330,0.0,0.0,99,-99.99,,,-99.99,,2013-08-11 04:43:00,
2013-08-10 23:53:00,62.0,61.0,-100.00,NNW,330,0.0,0.0,99,-99.99,,,-99.99,,2013-08-11 04:53:00,